Time;durP1;ratioP1;P1;durP2;ratioP2;P2;SDS_P1;SDS_P2;PMS_P1;PMS_P2;Temp;Humidity;BMP_temperature;BMP_pressure;BME280_temperature;BME280_humidity;BME280_pressure;Samples;Min_cycle;Max_cycle;Signal;HPM_P1;HPM_P2
2023/11/15 00:01:26;;;;;;;22.07;11.37;;;10.40;98.70;;;;;;800255;176;26375;-90
2023/11/15 00:03:53;;;;;;;25.27;14.07;;;10.40;98.80;;;;;;798939;180;26392;-90
2023/11/15 00:06:19;;;;;;;43.40;21.77;;;10.40;98.50;;;;;;798799;180;26479;-90
2023/11/15 00:08:46;;;;;;;20.37;10.73;;;10.40;98.50;;;;;;798564;180;26383;-90
2023/11/15 00:11:13;;;;;;;42.73;19.93;;;10.40;98.40;;;;;;798529;180;26363;-90
2023/11/15 00:13:39;;;;;;;38.93;20.33;;;10.40;98.50;;;;;;798328;177;26406;-90
2023/11/15 00:16:07;;;;;;;25.50;14.27;;;10.40;98.40;;;;;;798031;180;26909;-90
2023/11/15 00:18:33;;;;;;;33.13;14.90;;;10.40;98.60;;;;;;798307;180;26399;-90
2023/11/15 00:21:00;;;;;;;32.83;16.60;;;10.40;98.60;;;;;;798843;177;26379;-91
2023/11/15 00:23:26;;;;;;;21.57;8.13;;;10.50;98.50;;;;;;798949;177;26416;-90
2023/11/15 00:25:53;;;;;;;26.90;12.70;;;10.50;98.40;;;;;;799137;176;26370;-91
2023/11/15 00:28:20;;;;;;;22.77;11.17;;;10.50;98.30;;;;;;798817;177;26437;-90
2023/11/15 00:30:46;;;;;;;18.87;8.50;;;10.50;98.30;;;;;;798440;177;26390;-90
2023/11/15 00:33:13;;;;;;;22.43;9.10;;;10.50;98.20;;;;;;798575;180;26362;-91
2023/11/15 00:35:39;;;;;;;19.13;8.00;;;10.50;98.20;;;;;;798171;180;26443;-91
2023/11/15 00:38:07;;;;;;;17.93;8.60;;;10.50;98.20;;;;;;798321;180;26455;-90
2023/11/15 00:40:33;;;;;;;18.10;7.47;;;10.50;98.10;;;;;;798538;176;26426;-90
2023/11/15 00:42:59;;;;;;;22.53;8.53;;;10.50;98.20;;;;;;798635;176;26423;-90
2023/11/15 00:45:26;;;;;;;18.77;8.27;;;10.50;98.10;;;;;;797815;180;26402;-90
2023/11/15 00:47:52;;;;;;;20.80;7.03;;;10.60;97.90;;;;;;797975;180;27808;-90
2023/11/15 00:50:19;;;;;;;25.10;7.23;;;10.50;98.00;;;;;;797767;180;26382;-90
2023/11/15 00:52:46;;;;;;;17.77;7.33;;;10.60;98.10;;;;;;798130;176;26423;-91
2023/11/15 00:55:12;;;;;;;20.07;8.27;;;10.50;98.10;;;;;;798796;176;26383;-90
2023/11/15 00:57:39;;;;;;;15.47;7.10;;;10.60;98.20;;;;;;798725;176;26438;-91
2023/11/15 01:00:22;;;;;;;19.53;6.60;;;10.60;97.80;;;;;;798355;176;26396;-90
2023/11/15 01:02:36;;;;;;;16.20;6.10;;;10.60;97.80;;;;;;796342;180;26433;-90
2023/11/15 01:05:00;;;;;;;17.63;6.03;;;10.60;97.60;;;;;;796979;180;26383;-90
2023/11/15 01:07:26;;;;;;;18.60;6.20;;;10.60;97.50;;;;;;796990;180;26427;-90
2023/11/15 01:09:54;;;;;;;18.33;5.70;;;10.60;97.30;;;;;;797711;177;26891;-91
2023/11/15 01:12:20;;;;;;;21.23;5.83;;;10.60;97.40;;;;;;798368;180;26390;-90
2023/11/15 01:14:46;;;;;;;12.40;4.73;;;10.60;96.90;;;;;;797932;180;26390;-90
2023/11/15 01:17:14;;;;;;;19.20;5.73;;;10.60;96.90;;;;;;799667;176;26448;-90
2023/11/15 01:19:40;;;;;;;17.17;5.80;;;10.70;96.90;;;;;;797572;180;26378;-90
2023/11/15 01:22:06;;;;;;;26.47;9.50;;;10.60;97.20;;;;;;797449;177;26378;-90
2023/11/15 01:24:33;;;;;;;24.37;8.47;;;10.70;96.90;;;;;;797237;177;26958;-90
2023/11/15 01:26:59;;;;;;;15.37;5.47;;;10.60;97.00;;;;;;796739;180;26398;-90
2023/11/15 01:29:26;;;;;;;14.97;4.87;;;10.70;96.60;;;;;;795899;180;26386;-89
2023/11/15 01:31:53;;;;;;;13.07;5.60;;;10.60;96.70;;;;;;795854;180;26379;-90
2023/11/15 01:34:20;;;;;;;23.50;6.13;;;10.60;96.70;;;;;;795851;180;26479;-90
2023/11/15 01:36:46;;;;;;;19.70;5.63;;;10.70;96.70;;;;;;795891;180;26399;-89
2023/11/15 01:39:16;;;;;;;22.20;5.17;;;10.70;96.80;;;;;;796153;180;26397;-89
2023/11/15 01:41:47;;;;;;;19.83;5.57;;;10.70;96.30;;;;;;795643;180;26414;-90
2023/11/15 01:44:06;;;;;;;24.13;5.77;;;10.70;96.20;;;;;;795048;180;26380;-90
2023/11/15 01:46:32;;;;;;;16.87;5.90;;;10.80;96.20;;;;;;795297;180;26391;-90
2023/11/15 01:48:59;;;;;;;17.77;5.60;;;10.80;96.20;;;;;;795169;177;26525;-90
2023/11/15 01:51:26;;;;;;;19.57;6.67;;;10.80;96.30;;;;;;795314;177;26942;-90
2023/11/15 01:53:52;;;;;;;20.80;5.70;;;10.80;96.10;;;;;;795433;180;26372;-89
2023/11/15 01:56:19;;;;;;;16.63;6.57;;;10.80;95.90;;;;;;795330;177;28018;-90
2023/11/15 01:58:45;;;;;;;17.37;6.27;;;10.80;96.00;;;;;;795382;180;26436;-90
2023/11/15 02:01:12;;;;;;;19.20;5.70;;;10.80;95.90;;;;;;795245;180;26448;-89
2023/11/15 02:03:39;;;;;;;12.77;4.80;;;10.80;96.00;;;;;;795130;180;26981;-88
2023/11/15 02:06:06;;;;;;;22.60;6.33;;;10.80;95.80;;;;;;795178;180;26455;-89
2023/11/15 02:08:32;;;;;;;19.13;6.57;;;10.80;95.90;;;;;;795160;180;26440;-89
2023/11/15 02:10:59;;;;;;;17.20;5.97;;;10.80;95.80;;;;;;795258;177;26452;-89
2023/11/15 02:13:25;;;;;;;26.10;8.43;;;10.80;95.70;;;;;;795333;180;26998;-89
2023/11/15 02:15:56;;;;;;;18.67;6.57;;;10.80;95.70;;;;;;795258;180;26433;-89
2023/11/15 02:18:21;;;;;;;14.07;5.30;;;10.90;95.60;;;;;;795116;180;26984;-89
2023/11/15 02:20:47;;;;;;;12.87;5.03;;;10.90;95.50;;;;;;795394;178;26382;-88
2023/11/15 02:23:14;;;;;;;19.60;5.70;;;10.90;95.50;;;;;;798069;180;26972;-89
2023/11/15 02:25:42;;;;;;;14.53;6.10;;;10.90;95.60;;;;;;798831;177;26362;-90
2023/11/15 02:28:07;;;;;;;19.10;5.50;;;10.80;95.90;;;;;;799779;177;26459;-91
2023/11/15 02:30:34;;;;;;;17.93;6.07;;;10.90;95.50;;;;;;797632;180;26939;-89
2023/11/15 02:33:00;;;;;;;16.47;5.97;;;10.90;95.60;;;;;;797416;180;26460;-89
2023/11/15 02:35:27;;;;;;;14.10;5.70;;;10.90;95.30;;;;;;797059;180;26400;-89
2023/11/15 02:37:53;;;;;;;15.93;6.00;;;11.00;95.30;;;;;;796404;180;26993;-89
2023/11/15 02:40:20;;;;;;;14.90;5.13;;;10.90;95.40;;;;;;796099;180;26377;-89
2023/11/15 02:42:47;;;;;;;13.27;5.03;;;10.90;95.30;;;;;;795919;177;26414;-89
2023/11/15 02:45:14;;;;;;;16.93;5.37;;;11.00;95.20;;;;;;795924;180;26373;-89
2023/11/15 02:47:40;;;;;;;15.23;5.60;;;11.00;95.20;;;;;;795683;180;26396;-88
2023/11/15 02:50:07;;;;;;;20.27;5.30;;;11.00;95.10;;;;;;796172;180;26934;-90
2023/11/15 02:52:35;;;;;;;19.93;5.20;;;11.00;95.00;;;;;;795959;180;26381;-88
2023/11/15 02:55:00;;;;;;;10.73;4.40;;;11.00;94.90;;;;;;795930;180;26378;-88
2023/11/15 02:57:27;;;;;;;14.53;6.67;;;11.00;95.10;;;;;;795878;177;27966;-89
2023/11/15 02:59:53;;;;;;;15.63;4.90;;;11.00;94.90;;;;;;795615;180;26451;-88
2023/11/15 03:02:20;;;;;;;17.93;6.33;;;11.00;94.20;;;;;;795604;180;26379;-88
2023/11/15 03:04:48;;;;;;;29.43;15.03;;;11.00;94.30;;;;;;795773;180;26402;-88
2023/11/15 03:07:13;;;;;;;17.77;6.30;;;11.10;94.50;;;;;;795630;180;27977;-88
2023/11/15 03:09:40;;;;;;;23.57;7.63;;;11.00;94.30;;;;;;795856;180;26395;-89
2023/11/15 03:12:07;;;;;;;28.37;9.63;;;11.00;94.70;;;;;;796855;180;26371;-89
2023/11/15 03:14:33;;;;;;;23.83;9.13;;;11.00;94.30;;;;;;798385;177;26369;-88
2023/11/15 03:17:11;;;;;;;21.30;5.80;;;11.00;94.40;;;;;;797699;180;26447;-92
2023/11/15 03:19:37;;;;;;;16.63;6.93;;;11.10;94.10;;;;;;798482;176;26391;-91
2023/11/15 03:22:03;;;;;;;15.60;4.70;;;11.10;94.00;;;;;;798761;176;26421;-92
2023/11/15 03:24:30;;;;;;;14.13;4.93;;;11.10;93.80;;;;;;798730;176;26404;-93
2023/11/15 03:26:57;;;;;;;17.20;5.00;;;11.10;94.10;;;;;;798657;176;28057;-90
2023/11/15 03:29:23;;;;;;;17.53;4.63;;;11.10;94.00;;;;;;798436;176;26452;-89
2023/11/15 03:31:50;;;;;;;13.73;4.37;;;11.10;94.10;;;;;;796728;180;26379;-88
2023/11/15 03:34:16;;;;;;;14.77;4.30;;;11.10;94.20;;;;;;799529;178;26915;-89
2023/11/15 03:36:43;;;;;;;14.33;3.87;;;11.10;93.50;;;;;;798799;179;26396;-88
2023/11/15 03:39:09;;;;;;;9.90;3.70;;;11.10;93.20;;;;;;797918;177;26415;-91
2023/11/15 03:41:36;;;;;;;10.53;4.43;;;11.10;93.30;;;;;;797630;177;26918;-88
2023/11/15 03:44:03;;;;;;;13.17;4.37;;;11.10;93.30;;;;;;797207;177;26390;-89
2023/11/15 03:46:29;;;;;;;18.00;4.27;;;11.10;92.90;;;;;;797225;180;26436;-88
2023/11/15 03:48:56;;;;;;;14.80;4.07;;;11.10;93.40;;;;;;797288;180;26407;-88
2023/11/15 03:51:23;;;;;;;17.30;4.90;;;11.00;93.40;;;;;;797168;180;26928;-88
2023/11/15 03:53:49;;;;;;;14.33;4.17;;;11.00;93.60;;;;;;796843;177;26390;-89
2023/11/15 03:56:16;;;;;;;17.57;4.50;;;11.00;94.00;;;;;;796823;180;26373;-88
2023/11/15 03:58:43;;;;;;;14.33;4.20;;;10.90;93.80;;;;;;796874;180;26390;-88
2023/11/15 04:01:09;;;;;;;15.57;4.07;;;10.90;93.50;;;;;;796660;180;26441;-89
2023/11/15 04:03:36;;;;;;;13.10;4.00;;;10.90;93.70;;;;;;796875;180;26379;-88
2023/11/15 04:06:04;;;;;;;10.87;4.20;;;11.00;93.30;;;;;;796664;180;26390;-87
2023/11/15 04:08:29;;;;;;;13.00;3.60;;;11.00;93.50;;;;;;796578;180;26436;-88
2023/11/15 04:10:57;;;;;;;15.43;4.30;;;11.00;93.30;;;;;;796311;180;26399;-89
2023/11/15 04:13:23;;;;;;;15.03;4.03;;;11.00;93.60;;;;;;796160;180;26976;-88
2023/11/15 04:15:49;;;;;;;11.53;3.63;;;11.00;93.30;;;;;;796275;177;26386;-87
2023/11/15 04:18:16;;;;;;;16.80;4.20;;;11.00;93.20;;;;;;796349;180;26413;-87
2023/11/15 04:20:42;;;;;;;13.40;3.83;;;11.00;93.00;;;;;;796365;180;26383;-90
2023/11/15 04:23:09;;;;;;;14.57;4.03;;;11.00;93.10;;;;;;796485;180;26398;-87
2023/11/15 04:25:36;;;;;;;20.77;6.43;;;11.00;92.90;;;;;;796365;180;28007;-87
2023/11/15 04:28:04;;;;;;;15.37;4.10;;;11.00;92.90;;;;;;796279;178;26419;-87
2023/11/15 04:30:29;;;;;;;16.80;4.30;;;11.00;93.00;;;;;;796108;177;26446;-87
2023/11/15 04:32:55;;;;;;;16.83;3.83;;;11.00;92.90;;;;;;796386;180;26534;-90
2023/11/15 04:35:22;;;;;;;17.90;4.50;;;11.00;93.10;;;;;;796500;180;26383;-87
2023/11/15 04:37:48;;;;;;;19.03;4.70;;;11.00;93.10;;;;;;796457;180;26390;-87
2023/11/15 04:40:15;;;;;;;17.23;4.07;;;11.00;93.40;;;;;;796512;180;26949;-87
2023/11/15 04:42:42;;;;;;;26.27;5.67;;;11.00;93.50;;;;;;796617;180;26550;-89
2023/11/15 04:45:09;;;;;;;13.67;4.60;;;11.00;93.40;;;;;;798245;178;26390;-87
2023/11/15 04:47:35;;;;;;;13.20;3.70;;;11.00;93.90;;;;;;798471;180;26390;-86
2023/11/15 04:50:02;;;;;;;19.97;4.37;;;10.90;93.30;;;;;;797960;180;26422;-86
2023/11/15 04:52:28;;;;;;;13.00;4.13;;;10.90;93.30;;;;;;797938;180;26383;-88
2023/11/15 04:54:55;;;;;;;15.63;3.53;;;10.90;93.40;;;;;;797477;180;26411;-87
2023/11/15 04:57:25;;;;;;;21.40;4.93;;;10.90;93.40;;;;;;797427;180;26929;-86
2023/11/15 04:59:50;;;;;;;23.43;4.47;;;10.90;93.60;;;;;;797224;180;26394;-86
2023/11/15 05:02:15;;;;;;;18.37;4.27;;;10.90;93.60;;;;;;797324;180;26382;-89
2023/11/15 05:04:41;;;;;;;14.23;4.30;;;10.90;93.60;;;;;;797076;180;26378;-88
2023/11/15 05:07:08;;;;;;;22.00;4.30;;;10.90;93.40;;;;;;796854;177;26394;-86
2023/11/15 05:09:35;;;;;;;17.30;4.83;;;10.90;93.40;;;;;;797069;180;26956;-86
2023/11/15 05:12:01;;;;;;;15.93;4.80;;;10.90;93.50;;;;;;796936;180;26378;-86
2023/11/15 05:14:28;;;;;;;21.57;4.90;;;10.90;93.60;;;;;;797032;180;26392;-89
2023/11/15 05:16:54;;;;;;;14.20;3.80;;;10.90;93.70;;;;;;796803;180;26948;-86
2023/11/15 05:19:21;;;;;;;24.17;4.30;;;10.90;93.40;;;;;;796876;180;26412;-86
2023/11/15 05:21:48;;;;;;;18.97;4.40;;;10.90;93.60;;;;;;796262;180;26951;-85
2023/11/15 05:24:14;;;;;;;16.77;3.87;;;10.90;93.40;;;;;;796606;180;26396;-86
2023/11/15 05:26:41;;;;;;;15.93;4.07;;;10.90;93.30;;;;;;796654;180;26400;-87
2023/11/15 05:29:07;;;;;;;16.97;4.03;;;10.90;93.30;;;;;;796690;180;26399;-86
2023/11/15 05:31:34;;;;;;;25.13;5.27;;;10.90;93.50;;;;;;798274;177;26428;-91
2023/11/15 05:34:01;;;;;;;16.80;4.60;;;10.90;93.40;;;;;;797781;176;27006;-86
2023/11/15 05:36:27;;;;;;;13.03;4.40;;;10.90;93.30;;;;;;796578;180;26380;-88
2023/11/15 05:38:54;;;;;;;12.37;3.97;;;10.90;93.10;;;;;;796698;177;26434;-87
2023/11/15 05:41:20;;;;;;;15.53;4.43;;;10.90;93.30;;;;;;796637;177;26399;-86
2023/11/15 05:43:47;;;;;;;17.10;4.50;;;10.80;93.80;;;;;;796637;177;26385;-86
2023/11/15 05:46:14;;;;;;;14.60;4.13;;;10.80;93.30;;;;;;796669;180;26883;-87
2023/11/15 05:48:46;;;;;;;17.43;4.10;;;10.70;93.80;;;;;;783673;174;26536;-89
2023/11/15 05:51:18;;;;;;;19.13;4.77;;;10.70;93.60;;;;;;779664;182;26482;-85
2023/11/15 05:53:50;;;;;;;12.87;4.03;;;10.70;93.80;;;;;;773437;184;26462;-89
2023/11/15 05:56:24;;;;;;;20.00;5.20;;;10.80;93.40;;;;;;783950;181;27007;-88
2023/11/15 05:59:02;;;;;;;19.87;4.97;;;10.80;93.50;;;;;;781524;184;26498;-87
2023/11/15 06:01:31;;;;;;;15.43;5.07;;;10.80;93.30;;;;;;771754;184;26497;-87
2023/11/15 06:04:02;;;;;;;16.57;3.97;;;10.80;93.50;;;;;;775600;185;26422;-86
2023/11/15 06:06:40;;;;;;;19.87;4.73;;;10.80;93.50;;;;;;786311;182;27067;-85
2023/11/15 06:09:13;;;;;;;17.90;4.00;;;10.90;93.50;;;;;;787161;180;27013;-84
2023/11/15 06:11:42;;;;;;;18.03;4.57;;;10.90;93.30;;;;;;786265;182;27045;-89
2023/11/15 06:14:08;;;;;;;16.57;4.90;;;10.90;93.40;;;;;;785813;181;27016;-86
2023/11/15 06:16:41;;;;;;;14.37;5.10;;;10.90;93.60;;;;;;785797;181;26477;-88
2023/11/15 06:19:08;;;;;;;16.77;5.23;;;10.80;93.60;;;;;;787519;181;26988;-88
2023/11/15 06:21:46;;;;;;;17.60;4.77;;;10.80;93.40;;;;;;785987;181;26449;-85
2023/11/15 06:24:14;;;;;;;15.70;4.83;;;10.90;93.60;;;;;;785891;183;26503;-86
2023/11/15 06:26:51;;;;;;;19.77;4.77;;;10.90;93.80;;;;;;785890;180;27007;-86
2023/11/15 06:29:22;;;;;;;16.80;4.80;;;10.90;93.50;;;;;;786743;182;26584;-85
2023/11/15 06:31:57;;;;;;;14.27;4.80;;;10.90;93.20;;;;;;786593;180;26466;-86
2023/11/15 06:34:29;;;;;;;20.63;4.87;;;11.00;93.60;;;;;;786878;180;26657;-85
2023/11/15 06:37:06;;;;;;;17.20;4.90;;;10.90;93.40;;;;;;786879;181;26467;-85
2023/11/15 06:39:49;;;;;;;19.43;4.80;;;11.00;93.60;;;;;;786395;183;26463;-85
2023/11/15 06:42:24;;;;;;;16.67;5.20;;;11.00;93.80;;;;;;778076;181;26467;-86
2023/11/15 06:44:51;;;;;;;17.87;4.80;;;11.00;93.60;;;;;;785954;182;26456;-85
2023/11/15 06:47:30;;;;;;;17.33;5.20;;;11.00;93.40;;;;;;785354;180;27037;-88
2023/11/15 06:50:10;;;;;;;16.03;4.30;;;11.00;93.30;;;;;;788578;182;27066;-86
2023/11/15 06:52:42;;;;;;;16.33;5.33;;;11.00;93.20;;;;;;788418;181;26462;-86
2023/11/15 06:55:12;;;;;;;15.60;5.20;;;11.00;92.90;;;;;;785185;183;26475;-85
2023/11/15 06:57:44;;;;;;;19.23;4.77;;;11.00;92.80;;;;;;785330;181;26511;-87
2023/11/15 07:00:19;;;;;;;12.20;4.50;;;11.10;92.70;;;;;;785368;179;26501;-87
2023/11/15 07:02:51;;;;;;;18.10;5.00;;;11.10;92.90;;;;;;777994;181;26482;-86
2023/11/15 07:05:22;;;;;;;18.93;5.10;;;11.10;92.60;;;;;;785334;182;27022;-86
2023/11/15 07:07:51;;;;;;;13.87;5.00;;;11.10;92.60;;;;;;786409;181;26534;-85
2023/11/15 07:10:34;;;;;;;19.63;5.40;;;11.10;92.80;;;;;;787342;180;26475;-87
2023/11/15 07:13:22;;;;;;;17.10;4.87;;;11.20;92.50;;;;;;786010;181;26858;-85
2023/11/15 07:15:53;;;;;;;14.50;4.47;;;11.20;92.50;;;;;;786404;181;26462;-86
2023/11/15 07:18:28;;;;;;;16.20;4.60;;;11.20;92.40;;;;;;786249;182;26495;-86
2023/11/15 07:20:59;;;;;;;11.03;4.13;;;11.20;92.40;;;;;;786376;181;26501;-85
2023/11/15 07:23:28;;;;;;;13.33;4.47;;;11.20;92.10;;;;;;786819;181;26446;-86
2023/11/15 07:26:01;;;;;;;14.53;4.77;;;11.30;92.10;;;;;;786033;181;26520;-85
2023/11/15 07:28:56;;;;;;;17.10;4.70;;;11.30;92.20;;;;;;785802;182;26482;-86
2023/11/15 07:31:29;;;;;;;14.77;4.50;;;11.20;92.50;;;;;;786640;181;27083;-86
2023/11/15 07:34:01;;;;;;;22.03;4.80;;;11.20;92.30;;;;;;785900;180;27029;-85
2023/11/15 07:36:47;;;;;;;20.47;4.73;;;11.30;92.20;;;;;;785660;181;26572;-87
2023/11/15 07:39:15;;;;;;;15.87;4.30;;;11.30;92.20;;;;;;785177;182;26504;-85
2023/11/15 07:41:49;;;;;;;16.50;4.30;;;11.30;92.30;;;;;;785844;181;26460;-86
2023/11/15 07:44:19;;;;;;;12.80;3.63;;;11.30;91.80;;;;;;785573;181;26459;-85
2023/11/15 07:46:54;;;;;;;20.10;4.60;;;11.40;91.50;;;;;;785238;181;26458;-86
2023/11/15 07:49:24;;;;;;;14.40;4.43;;;11.40;91.60;;;;;;785476;181;26491;-86
2023/11/15 07:51:59;;;;;;;13.77;4.50;;;11.40;91.70;;;;;;785234;183;26498;-86
2023/11/15 07:54:32;;;;;;;15.87;4.13;;;11.40;92.20;;;;;;785364;181;26452;-86
2023/11/15 07:57:09;;;;;;;15.23;4.33;;;11.40;91.60;;;;;;783194;181;26522;-86
2023/11/15 07:59:41;;;;;;;14.37;4.70;;;11.40;92.30;;;;;;784314;182;26492;-87
2023/11/15 08:02:17;;;;;;;17.90;4.87;;;11.40;91.70;;;;;;783639;181;26465;-86
2023/11/15 08:04:49;;;;;;;14.07;4.87;;;11.40;91.80;;;;;;783792;183;26719;-87
2023/11/15 08:07:23;;;;;;;15.27;4.33;;;11.40;91.80;;;;;;783721;179;26529;-87
2023/11/15 08:09:50;;;;;;;14.43;4.40;;;11.40;91.70;;;;;;783892;182;26478;-86
2023/11/15 08:20:43;;;;;;;15.87;4.07;;;11.70;91.30;;;;;;753060;189;27139;-86
2023/11/15 08:23:18;;;;;;;13.70;4.37;;;11.70;91.30;;;;;;759131;186;26594;-85
2023/11/15 08:26:16;;;;;;;15.33;4.33;;;11.70;91.10;;;;;;763452;188;26586;-87
2023/11/15 08:28:27;;;;;;;19.20;5.13;;;11.80;91.10;;;;;;762261;187;26535;-87
2023/11/15 08:30:53;;;;;;;13.70;4.67;;;11.80;91.20;;;;;;763046;188;27045;-87
2023/11/15 08:36:10;;;;;;;15.33;3.83;;;11.90;90.80;;;;;;763809;181;26518;-88
2023/11/15 08:38:37;;;;;;;17.23;4.07;;;11.80;90.80;;;;;;764051;180;26516;-88
2023/11/15 08:41:09;;;;;;;13.67;4.10;;;11.80;90.70;;;;;;765628;177;26503;-87
2023/11/15 08:46:27;;;;;;;16.60;3.87;;;11.70;91.20;;;;;;782669;184;26426;-89
2023/11/15 08:49:00;;;;;;;13.27;4.20;;;11.60;91.00;;;;;;782571;184;26465;-86
2023/11/15 08:51:25;;;;;;;13.03;4.57;;;11.60;91.10;;;;;;782524;183;26522;-86
2023/11/15 08:54:14;;;;;;;14.23;3.70;;;11.60;91.10;;;;;;782844;180;26625;-86
2023/11/15 08:56:44;;;;;;;15.63;4.13;;;11.60;91.00;;;;;;768947;174;26558;-89
2023/11/15 08:59:14;;;;;;;11.83;4.07;;;11.70;90.80;;;;;;766017;184;26503;-87
2023/11/15 09:01:41;;;;;;;13.87;3.53;;;11.80;90.60;;;;;;766012;184;27045;-86
2023/11/15 09:04:17;;;;;;;15.80;3.80;;;11.80;90.80;;;;;;763470;187;26488;-87
2023/11/15 09:06:54;;;;;;;15.83;4.10;;;11.80;90.60;;;;;;762699;188;26502;-86
2023/11/15 09:09:21;;;;;;;14.37;3.53;;;12.00;90.70;;;;;;762840;188;26493;-89
2023/11/15 09:11:56;;;;;;;14.57;3.30;;;12.10;90.10;;;;;;762930;185;26509;-87
2023/11/15 09:14:25;;;;;;;17.57;3.67;;;12.30;88.40;;;;;;762391;188;26522;-87
2023/11/15 09:16:56;;;;;;;13.20;4.93;;;12.60;88.50;;;;;;762833;188;27302;-90
2023/11/15 09:19:25;;;;;;;13.70;3.87;;;12.90;88.20;;;;;;762854;185;26497;-89
2023/11/15 09:21:56;;;;;;;14.10;4.13;;;13.00;86.50;;;;;;763042;188;27052;-90
2023/11/15 09:24:23;;;;;;;14.60;3.60;;;13.00;84.90;;;;;;763026;188;26517;-87
2023/11/15 09:26:50;;;;;;;14.27;3.93;;;13.10;85.90;;;;;;762831;188;27073;-86
2023/11/15 09:29:29;;;;;;;12.83;3.80;;;13.00;85.00;;;;;;762994;188;27064;-87
2023/11/15 09:31:56;;;;;;;12.83;3.53;;;12.80;84.80;;;;;;764862;185;26593;-88
2023/11/15 09:34:27;;;;;;;16.60;4.10;;;12.90;87.30;;;;;;764863;187;26507;-86
2023/11/15 09:37:03;;;;;;;9.63;3.50;;;13.30;86.70;;;;;;764261;187;26537;-87
2023/11/15 09:39:35;;;;;;;12.83;2.80;;;13.70;82.80;;;;;;764357;187;26513;-87
2023/11/15 09:42:10;;;;;;;12.07;3.30;;;14.40;78.90;;;;;;763992;188;26531;-87
2023/11/15 09:47:16;;;;;;;14.00;6.03;;;14.80;77.50;;;;;;763959;188;26636;-90
2023/11/15 09:49:45;;;;;;;13.83;5.20;;;14.90;73.90;;;;;;763540;187;26519;-87
2023/11/15 09:52:15;;;;;;;14.97;3.77;;;14.80;74.20;;;;;;763322;185;26536;-87
2023/11/15 09:54:52;;;;;;;11.10;3.67;;;14.80;73.90;;;;;;763444;185;26506;-88
2023/11/15 09:57:20;;;;;;;15.53;7.17;;;14.60;73.60;;;;;;763413;187;26598;-90
2023/11/15 09:59:49;;;;;;;17.20;8.73;;;14.90;76.20;;;;;;763260;188;26488;-88
2023/11/15 10:02:19;;;;;;;15.43;4.43;;;15.30;74.90;;;;;;763550;187;27015;-88
2023/11/15 10:04:52;;;;;;;21.90;15.13;;;15.80;70.30;;;;;;763601;187;27042;-86
2023/11/15 10:07:27;;;;;;;15.30;7.40;;;15.60;73.10;;;;;;761568;188;26506;-88
2023/11/15 10:10:07;;;;;;;10.97;3.67;;;15.80;68.60;;;;;;762958;188;26505;-87
2023/11/15 10:12:44;;;;;;;7.90;3.57;;;16.10;69.10;;;;;;762975;188;27075;-86
2023/11/15 10:15:11;;;;;;;11.37;3.70;;;16.70;66.40;;;;;;762955;188;26669;-88
2023/11/15 10:17:40;;;;;;;10.27;3.07;;;16.80;65.40;;;;;;762796;188;27107;-90
2023/11/15 10:20:25;;;;;;;12.30;3.70;;;16.00;65.50;;;;;;762848;188;26530;-87
2023/11/15 10:22:57;;;;;;;7.90;2.73;;;16.40;65.60;;;;;;762697;188;27088;-86
2023/11/15 10:25:31;;;;;;;9.83;2.80;;;15.60;66.80;;;;;;762804;188;26514;-88
2023/11/15 10:28:03;;;;;;;12.87;3.23;;;15.30;67.70;;;;;;762881;188;26486;-85
2023/11/15 10:30:28;;;;;;;8.37;3.47;;;14.80;70.50;;;;;;762966;188;27043;-91
2023/11/15 10:33:13;;;;;;;13.00;3.80;;;14.40;72.30;;;;;;762974;188;26575;-86
2023/11/15 10:35:42;;;;;;;11.87;3.03;;;14.00;75.20;;;;;;762674;188;26530;-88
2023/11/15 10:38:14;;;;;;;11.33;3.73;;;13.60;77.10;;;;;;762928;188;26501;-88
2023/11/15 10:40:38;;;;;;;10.10;3.03;;;13.50;77.90;;;;;;762504;188;26498;-85
2023/11/15 10:43:05;;;;;;;8.83;3.37;;;13.40;77.70;;;;;;764540;185;26549;-88
2023/11/15 10:45:32;;;;;;;12.70;3.03;;;13.50;77.70;;;;;;764895;187;28384;-90
2023/11/15 10:48:10;;;;;;;9.33;3.13;;;13.50;77.60;;;;;;764189;184;26500;-87
2023/11/15 10:50:46;;;;;;;13.07;3.37;;;13.30;77.00;;;;;;764321;187;27024;-88
2023/11/15 10:53:12;;;;;;;10.60;3.40;;;13.40;77.30;;;;;;763811;188;26565;-89
2023/11/15 10:55:46;;;;;;;10.23;3.20;;;13.40;77.10;;;;;;763910;187;26588;-88
2023/11/15 10:58:16;;;;;;;11.30;2.67;;;13.40;78.30;;;;;;763967;187;26537;-87
2023/11/15 11:00:48;;;;;;;16.10;5.73;;;13.20;76.90;;;;;;763612;185;26552;-89
2023/11/15 11:03:15;;;;;;;23.63;11.73;;;13.50;77.00;;;;;;763402;187;26520;-86
2023/11/15 11:05:56;;;;;;;20.30;8.53;;;13.80;76.40;;;;;;763331;185;26522;-88
2023/11/15 11:08:34;;;;;;;25.83;11.57;;;14.10;76.90;;;;;;763269;187;26553;-88
2023/11/15 11:11:20;;;;;;;25.83;11.67;;;14.40;74.80;;;;;;763239;188;26518;-89
2023/11/15 11:13:55;;;;;;;26.53;13.70;;;14.70;72.10;;;;;;763222;188;26516;-87
2023/11/15 11:16:47;;;;;;;57.63;27.67;;;14.30;73.00;;;;;;763488;187;27063;-88
2023/11/15 11:19:16;;;;;;;59.67;30.70;;;14.00;74.10;;;;;;763410;187;26512;-86
2023/11/15 11:21:55;;;;;;;50.57;23.47;;;13.70;75.50;;;;;;762723;188;26513;-87
2023/11/15 11:24:23;;;;;;;21.90;12.13;;;13.90;74.70;;;;;;762597;188;26548;-88
2023/11/15 11:27:09;;;;;;;50.27;28.17;;;14.80;72.70;;;;;;763019;188;26829;-89
2023/11/15 11:30:12;;;;;;;16.37;7.83;;;15.90;69.30;;;;;;763146;188;27132;-87
2023/11/15 11:32:43;;;;;;;12.53;4.17;;;15.70;65.20;;;;;;760524;188;26531;-88
2023/11/15 11:35:34;;;;;;;18.60;8.43;;;15.10;69.00;;;;;;763027;188;26504;-86
2023/11/15 11:38:01;;;;;;;25.60;12.20;;;14.50;72.60;;;;;;762404;187;26858;-87
2023/11/15 11:40:31;;;;;;;22.23;10.80;;;14.20;73.40;;;;;;764077;188;26520;-87
2023/11/15 11:43:12;;;;;;;64.53;34.20;;;14.20;75.30;;;;;;764061;188;26502;-88
2023/11/15 11:45:40;;;;;;;33.57;17.43;;;14.00;73.80;;;;;;762873;187;26521;-87
2023/11/15 11:48:08;;;;;;;37.17;19.27;;;13.90;74.80;;;;;;764066;187;26506;-86
2023/11/15 11:50:35;;;;;;;59.93;29.90;;;13.90;74.50;;;;;;764019;187;27040;-86
2023/11/15 11:53:02;;;;;;;17.53;9.23;;;13.90;76.40;;;;;;764191;185;26499;-87
2023/11/15 11:55:35;;;;;;;13.57;5.53;;;14.70;74.60;;;;;;766665;185;27068;-88
2023/11/15 11:58:01;;;;;;;9.87;2.70;;;15.50;67.90;;;;;;766001;187;26485;-86
2023/11/15 12:00:31;;;;;;;13.83;6.83;;;15.70;64.80;;;;;;765617;187;26496;-88
2023/11/15 12:02:58;;;;;;;27.97;13.03;;;15.70;62.60;;;;;;765533;187;26493;-86
2023/11/15 12:05:24;;;;;;;26.47;12.07;;;15.30;66.70;;;;;;765142;187;28115;-87
2023/11/15 12:07:51;;;;;;;22.77;10.13;;;14.60;68.00;;;;;;765082;187;26508;-89
2023/11/15 12:10:18;;;;;;;17.40;7.40;;;14.60;71.70;;;;;;765163;187;26506;-84
2023/11/15 12:12:46;;;;;;;34.67;18.67;;;15.30;66.10;;;;;;764769;187;26515;-86
2023/11/15 12:15:15;;;;;;;24.17;12.80;;;16.00;65.50;;;;;;763230;188;26514;-87
2023/11/15 12:17:44;;;;;;;12.97;5.53;;;16.70;60.50;;;;;;764678;185;27051;-87
2023/11/15 12:20:10;;;;;;;15.73;6.93;;;16.70;59.30;;;;;;764554;187;26504;-89
2023/11/15 12:22:37;;;;;;;9.13;3.90;;;16.60;59.70;;;;;;764715;187;26508;-86
2023/11/15 12:25:08;;;;;;;8.07;3.37;;;16.20;61.20;;;;;;764729;187;27035;-86
2023/11/15 12:27:33;;;;;;;9.13;3.87;;;16.20;68.00;;;;;;764433;187;26670;-82
2023/11/15 12:29:59;;;;;;;10.13;3.53;;;16.30;70.70;;;;;;764503;188;26499;-86
2023/11/15 12:32:28;;;;;;;16.00;6.47;;;16.00;67.70;;;;;;764204;185;26840;-85
2023/11/15 12:34:54;;;;;;;8.57;3.50;;;15.70;66.50;;;;;;764146;187;26569;-85
2023/11/15 12:37:20;;;;;;;11.40;3.83;;;15.30;70.50;;;;;;764100;185;26514;-86
2023/11/15 12:39:48;;;;;;;14.00;3.47;;;14.60;73.60;;;;;;764247;185;26523;-86
2023/11/15 12:42:14;;;;;;;9.93;3.13;;;14.60;75.30;;;;;;764188;188;27076;-87
2023/11/15 12:44:44;;;;;;;20.93;9.80;;;15.20;72.20;;;;;;764142;187;26501;-86
2023/11/15 12:47:11;;;;;;;6.13;3.23;;;15.50;72.10;;;;;;763404;187;26517;-88
2023/11/15 12:49:39;;;;;;;14.37;6.63;;;15.00;71.80;;;;;;764131;187;26493;-86
2023/11/15 12:52:04;;;;;;;8.33;2.63;;;14.80;76.00;;;;;;764393;188;26500;-86
2023/11/15 12:54:32;;;;;;;8.57;2.70;;;14.10;75.20;;;;;;764495;187;26489;-86
2023/11/15 12:57:01;;;;;;;11.97;4.10;;;13.60;78.30;;;;;;764416;188;27063;-86
2023/11/15 12:59:28;;;;;;;12.10;3.50;;;13.30;81.30;;;;;;764131;185;26550;-86
2023/11/15 13:01:54;;;;;;;14.23;6.07;;;13.10;83.30;;;;;;763364;188;27057;-86
2023/11/15 13:04:22;;;;;;;13.00;3.37;;;13.00;82.30;;;;;;764161;187;26501;-88